< < Back
Terminal Aerodrome Forecast


Current Version              Previous Versions:   1  2  3  4  5  6  7  8  9  

Terminal Aerodrome Forecast

912
FTUS42 KMLB 021222 AAA
TAFMCO
TAF AMD
KMCO 021222Z 0212/0312 01005KT 1/4SM FG OVC002
      TEMPO 0214/0215 1SM BR BKN004
     FM021500 05006KT P6SM SCT015
      TEMPO 0215/0216 4SM BR HZ BKN008
     FM021800 06006KT P6SM SCT035
     FM030000 06007KT P6SM SCT040 BKN250
     FM030500 02004KT 5SM BR SCT003
      TEMPO 0308/0312 1SM BR BKN002=



Latest METAR

739
SAUS70 KWBC 021604
MTRMCO
METAR KMCO 021553Z 36003KT 10SM BKN007 23/21 A3031 RMK AO2 SLP262
T02330206


USA.gov is the U.S. government's official web portal to all federal, state and local government web resources and services.